Time;durP1;ratioP1;P1;durP2;ratioP2;P2;SDS_P1;SDS_P2;PMS_P1;PMS_P2;Temp;Humidity;BMP_temperature;BMP_pressure;BME280_temperature;BME280_humidity;BME280_pressure;Samples;Min_cycle;Max_cycle;Signal;HPM_P1;HPM_P2
2021/06/24 00:00:53;;;;;;;20.88;14.93;;;18.00;88.30;;;;;;5050087;28;20025;-66
2021/06/24 00:03:20;;;;;;;20.70;16.25;;;18.00;89.10;;;;;;5042279;28;20441;-66
2021/06/24 00:05:46;;;;;;;30.77;18.77;;;18.00;90.10;;;;;;5023041;28;20029;-67
2021/06/24 00:08:13;;;;;;;35.50;19.08;;;;;;;;;;5049770;28;20029;-67
2021/06/24 00:10:40;;;;;;;31.77;17.80;;;;;;;;;;5036356;28;20013;-67
2021/06/24 00:13:06;;;;;;;47.38;23.40;;;;;;;;;;5022812;28;20406;-67
2021/06/24 00:15:33;;;;;;;46.67;27.92;;;;;;;;;;5042385;28;20029;-67
2021/06/24 00:17:59;;;;;;;69.68;29.95;;;;;;;;;;5029324;28;20021;-67
2021/06/24 00:20:25;;;;;;;126.07;38.25;;;;;;;;;;5036628;28;20079;-67
2021/06/24 00:22:51;;;;;;;96.20;41.40;;;;;;;;;;5047980;28;20038;-67
2021/06/24 00:25:17;;;;;;;94.72;49.22;;;;;;;;;;5041650;28;20027;-67
2021/06/24 00:27:43;;;;;;;110.38;52.85;;;;;;;;;;5040579;28;20108;-67
2021/06/24 00:30:09;;;;;;;120.15;55.85;;;;;;;;;;5042805;28;20073;-67
2021/06/24 00:32:36;;;;;;;84.93;48.03;;;;;;;;;;5048371;28;20026;-67
2021/06/24 00:35:03;;;;;;;106.43;50.90;;;;;;;;;;5021420;28;20032;-67
2021/06/24 00:37:29;;;;;;;126.20;56.78;;;;;;;;;;5024403;28;20034;-67
2021/06/24 00:39:56;;;;;;;143.25;57.25;;;;;;;;;;5046383;28;20021;-67
2021/06/24 00:42:23;;;;;;;134.20;59.10;;;;;;;;;;5036278;28;20022;-67
2021/06/24 00:44:49;;;;;;;131.88;58.97;;;;;;;;;;5047564;28;20395;-66
2021/06/24 00:47:15;;;;;;;126.13;59.05;;;;;;;;;;5022727;28;20475;-66
2021/06/24 00:49:41;;;;;;;173.20;67.75;;;;;;;;;;5040541;28;20025;-66
2021/06/24 00:52:08;;;;;;;185.18;69.20;;;;;;;;;;5048012;28;20033;-67
2021/06/24 00:54:34;;;;;;;180.18;66.55;;;;;;;;;;5035761;28;20036;-67
2021/06/24 00:57:00;;;;;;;183.60;66.78;;;;;;;;;;5045700;28;20096;-66
2021/06/24 00:59:26;;;;;;;153.43;62.38;;;;;;;;;;5042007;28;20514;-67
2021/06/24 01:01:52;;;;;;;199.43;66.95;;;;;;;;;;5020638;28;20034;-67
2021/06/24 01:04:22;;;;;;;188.07;69.93;;;;;;;;;;5048216;28;20031;-67
2021/06/24 01:06:51;;;;;;;190.07;71.28;;;;;;;;;;5018870;28;20112;-67
2021/06/24 01:09:17;;;;;;;190.55;76.55;;;;;;;;;;5043314;28;20029;-67
2021/06/24 01:11:44;;;;;;;178.23;75.80;;;;;;;;;;5017538;28;20028;-67
2021/06/24 01:14:10;;;;;;;142.15;68.70;;;;;;;;;;5047706;28;20098;-67
2021/06/24 01:16:37;;;;;;;198.63;77.57;;;;;;;;;;5029803;28;20025;-67
2021/06/24 01:19:04;;;;;;;188.30;77.55;;;;;;;;;;5020557;28;20031;-67
2021/06/24 01:21:30;;;;;;;152.40;72.78;;;;;;;;;;5041223;28;20079;-66
2021/06/24 01:23:56;;;;;;;196.63;77.88;;;;;;;;;;5045376;28;20021;-67
2021/06/24 01:26:22;;;;;;;159.65;74.88;;;;;;;;;;5034853;28;20048;-67
2021/06/24 01:28:48;;;;;;;133.38;66.70;;;;;;;;;;5046627;28;20029;-67
2021/06/24 01:31:14;;;;;;;168.07;74.45;;;;;;;;;;5039987;28;20387;-67
2021/06/24 01:33:41;;;;;;;201.77;76.95;;;;;;;;;;5039865;28;20033;-66
2021/06/24 01:36:07;;;;;;;196.90;76.70;;;;;;;;;;5029046;28;20049;-68
2021/06/24 01:38:33;;;;;;;156.23;68.13;;;;;;;;;;5032730;28;20022;-67
2021/06/24 01:40:59;;;;;;;156.43;67.63;;;;;;;;;;5045450;28;20040;-67
2021/06/24 01:43:26;;;;;;;214.57;81.55;;;;;;;;;;5041021;28;20028;-67
2021/06/24 01:45:53;;;;;;;180.35;74.85;;;;;;;;;;5040611;28;20496;-68
2021/06/24 01:48:19;;;;;;;220.68;78.20;;;;;;;;;;5034266;28;20048;-67
2021/06/24 01:50:45;;;;;;;160.05;71.68;;;;;;;;;;5040106;28;20029;-67
2021/06/24 01:53:12;;;;;;;207.55;77.32;;;;;;;;;;5047629;28;20083;-67
2021/06/24 01:55:40;;;;;;;168.10;70.28;;;;;;;;;;5046839;28;20029;-67
2021/06/24 01:58:07;;;;;;;162.48;66.10;;;;;;;;;;5039823;28;20149;-67
2021/06/24 02:00:34;;;;;;;126.60;57.42;;;;;;;;;;5051837;28;20035;-67
2021/06/24 02:03:00;;;;;;;181.85;70.55;;;;;;;;;;5041337;28;20025;-66
2021/06/24 02:05:26;;;;;;;152.32;67.57;;;;;;;;;;5045471;28;20029;-67
2021/06/24 02:07:52;;;;;;;142.45;63.35;;;;;;;;;;5048530;28;20498;-67
2021/06/24 02:10:18;;;;;;;158.00;67.38;;;;;;;;;;5021203;28;20041;-67
2021/06/24 02:12:44;;;;;;;180.23;70.80;;;;;;;;;;5024149;28;20405;-67
2021/06/24 02:15:12;;;;;;;195.63;71.03;;;;;;;;;;5048872;28;20018;-67
2021/06/24 02:17:38;;;;;;;104.90;56.75;;;;;;;;;;5046888;28;20031;-67
2021/06/24 02:20:05;;;;;;;204.13;71.15;;;;;;;;;;5040415;28;20466;-67
2021/06/24 02:22:32;;;;;;;112.30;54.85;;;;;;;;;;5051456;28;20029;-67
2021/06/24 02:24:58;;;;;;;126.40;58.47;;;;;;;;;;5040901;28;20490;-67
2021/06/24 02:27:24;;;;;;;101.97;54.85;;;;;;;;;;5026880;28;20022;-66
2021/06/24 02:29:50;;;;;;;120.95;60.92;;;;;;;;;;5044872;28;20023;-67
2021/06/24 02:32:16;;;;;;;169.57;69.97;;;;;;;;;;5051619;28;20130;-67
2021/06/24 02:34:42;;;;;;;147.82;65.55;;;;;;;;;;5038620;28;20025;-67
2021/06/24 02:37:08;;;;;;;143.98;63.17;;;;;;;;;;5047031;28;20396;-67
2021/06/24 02:39:34;;;;;;;94.85;56.15;;;;;;;;;;5045731;28;20033;-66
2021/06/24 02:42:00;;;;;;;159.55;66.75;;;;;;;;;;5039826;28;20048;-66
2021/06/24 02:44:26;;;;;;;170.98;69.97;;;;;;;;;;5051155;28;20025;-67
2021/06/24 02:46:53;;;;;;;144.43;62.50;;;;;;;;;;5021957;28;20438;-67
2021/06/24 02:49:19;;;;;;;143.07;63.72;;;;;;;;;;5027767;28;20029;-67
2021/06/24 02:51:47;;;;;;;158.65;64.65;;;;;;;;;;5046954;28;20033;-67
2021/06/24 02:54:14;;;;;;;151.88;67.10;;;;;;;;;;5037915;28;20033;-67
2021/06/24 02:56:40;;;;;;;179.60;69.40;;;;;;;;;;5032931;28;20052;-67
2021/06/24 02:59:06;;;;;;;132.15;59.42;;;;;;;;;;5041626;28;20469;-66
2021/06/24 03:01:33;;;;;;;196.00;71.13;;;;;;;;;;5043522;28;20025;-67
2021/06/24 03:03:59;;;;;;;155.70;62.90;;;;;;;;;;5030722;28;20090;-67
2021/06/24 03:06:25;;;;;;;149.05;62.28;;;;;;;;;;5037855;28;20025;-67
2021/06/24 03:08:50;;;;;;;133.20;61.50;;;16.20;95.50;;;;;;5049620;28;20026;-67
2021/06/24 03:11:16;;;;;;;174.13;65.55;;;16.10;95.40;;;;;;5037681;28;20360;-67
2021/06/24 03:13:41;;;;;;;130.80;57.92;;;16.10;95.40;;;;;;5046412;28;20036;-67
2021/06/24 03:16:07;;;;;;;190.55;67.93;;;16.10;95.40;;;;;;5038606;28;20040;-65
2021/06/24 03:18:33;;;;;;;610.17;224.80;;;16.10;95.40;;;;;;5050363;28;20502;-66
2021/06/24 03:20:59;;;;;;;168.60;80.22;;;16.10;95.40;;;;;;5040486;28;20021;-66
2021/06/24 03:23:24;;;;;;;271.45;94.03;;;16.20;95.40;;;;;;5043941;28;20038;-66
2021/06/24 03:25:52;;;;;;;414.92;134.20;;;16.20;95.40;;;;;;5047045;28;20021;-66
2021/06/24 03:28:17;;;;;;;216.07;83.63;;;16.20;95.40;;;;;;5036806;28;20493;-67
2021/06/24 03:30:45;;;;;;;154.82;63.38;;;16.20;95.40;;;;;;5049935;28;20030;-67
2021/06/24 03:33:11;;;;;;;971.78;397.83;;;16.10;95.40;;;;;;5041858;28;20057;-67
2021/06/24 03:35:36;;;;;;;175.15;71.38;;;16.20;95.40;;;;;;5042272;28;20107;-67
2021/06/24 03:38:02;;;;;;;247.05;84.53;;;16.20;95.40;;;;;;5048277;28;20112;-67
2021/06/24 03:40:27;;;;;;;123.72;57.30;;;16.30;95.40;;;;;;5037050;28;20072;-66
2021/06/24 03:42:53;;;;;;;260.20;86.53;;;16.20;95.40;;;;;;5030210;28;20139;-67
2021/06/24 03:45:19;;;;;;;190.32;70.60;;;16.20;95.40;;;;;;5042659;28;20360;-66
2021/06/24 03:47:45;;;;;;;181.30;72.13;;;16.10;95.40;;;;;;5040641;28;20100;-67
2021/06/24 03:50:12;;;;;;;99.90;55.20;;;16.00;95.40;;;;;;5049471;28;20021;-67
2021/06/24 03:52:38;;;;;;;167.07;65.00;;;16.00;95.40;;;;;;5036651;28;20035;-67
2021/06/24 03:55:06;;;;;;;133.07;60.10;;;16.00;95.50;;;;;;5028486;28;20029;-66
2021/06/24 03:57:31;;;;;;;155.02;62.72;;;16.00;95.40;;;;;;5043637;28;20072;-67
2021/06/24 03:59:57;;;;;;;142.15;66.43;;;16.00;95.50;;;;;;5039168;28;20021;-67
2021/06/24 04:02:23;;;;;;;107.35;53.47;;;15.90;95.40;;;;;;5049829;28;20025;-68
2021/06/24 04:04:49;;;;;;;145.95;65.88;;;15.80;95.40;;;;;;5037721;28;20033;-66
2021/06/24 04:07:14;;;;;;;162.13;65.82;;;15.80;95.40;;;;;;5043775;28;20060;-67
2021/06/24 04:09:40;;;;;;;167.70;63.53;;;15.80;95.50;;;;;;5026858;28;20021;-67
2021/06/24 04:12:06;;;;;;;156.27;69.22;;;15.80;95.50;;;;;;5037154;28;20029;-67
2021/06/24 04:14:31;;;;;;;156.50;63.70;;;16.00;95.50;;;;;;5049415;28;20031;-67
2021/06/24 04:16:57;;;;;;;119.00;56.35;;;16.00;95.50;;;;;;5020810;28;20108;-67
2021/06/24 04:19:22;;;;;;;113.57;55.28;;;16.00;95.50;;;;;;5025019;28;20049;-67
2021/06/24 04:21:48;;;;;;;120.38;58.13;;;15.90;95.50;;;;;;5045471;28;20074;-67
2021/06/24 04:24:14;;;;;;;136.00;63.95;;;15.80;95.50;;;;;;5035741;28;20518;-67
2021/06/24 04:26:39;;;;;;;95.25;50.03;;;15.90;95.50;;;;;;5048631;28;20014;-66
2021/06/24 04:29:05;;;;;;;127.55;63.10;;;16.00;95.50;;;;;;5020855;28;20025;-67
2021/06/24 04:31:30;;;;;;;177.90;69.20;;;16.00;95.50;;;;;;5041588;28;20026;-66
2021/06/24 04:33:57;;;;;;;108.57;56.25;;;16.20;95.50;;;;;;5044169;28;20137;-67
2021/06/24 04:36:25;;;;;;;152.65;63.10;;;16.30;95.50;;;;;;5017461;28;20109;-67
2021/06/24 04:38:50;;;;;;;136.13;62.13;;;16.30;95.50;;;;;;5038356;28;20287;-66
2021/06/24 04:41:16;;;;;;;137.93;62.50;;;16.30;95.50;;;;;;5040662;28;20025;-67
2021/06/24 04:43:42;;;;;;;155.40;62.85;;;16.20;95.50;;;;;;5039637;28;20426;-67
2021/06/24 04:46:07;;;;;;;147.82;65.20;;;16.30;95.50;;;;;;5047549;28;20070;-67
2021/06/24 04:48:33;;;;;;;146.18;64.03;;;16.40;95.50;;;;;;5035347;28;21296;-68
2021/06/24 04:50:58;;;;;;;148.98;62.25;;;16.30;95.50;;;;;;5049324;28;20065;-68
2021/06/24 04:53:24;;;;;;;120.30;58.45;;;16.20;95.50;;;;;;5041998;28;20033;-68
2021/06/24 04:55:50;;;;;;;145.35;62.80;;;16.30;95.50;;;;;;5027272;28;20029;-68
2021/06/24 04:58:15;;;;;;;103.43;56.22;;;16.30;95.50;;;;;;5034843;28;20033;-66
2021/06/24 05:00:41;;;;;;;98.22;53.35;;;16.40;95.50;;;;;;5047964;28;20025;-67
2021/06/24 05:03:10;;;;;;;144.18;60.05;;;16.40;95.50;;;;;;5038386;28;20064;-67
2021/06/24 05:05:35;;;;;;;126.22;62.58;;;16.30;95.50;;;;;;5038303;23;1035191;-64
2021/06/24 05:08:07;;;;;;;132.48;60.30;;;16.30;95.50;;;;;;5055608;28;20054;-65
2021/06/24 05:10:33;;;;;;;116.50;57.08;;;16.50;95.50;;;;;;5067867;28;20126;-64
2021/06/24 05:12:58;;;;;;;103.30;54.17;;;16.50;95.50;;;;;;5057824;28;20048;-64
2021/06/24 05:15:24;;;;;;;123.60;55.38;;;16.50;95.50;;;;;;5055802;28;20036;-64
2021/06/24 05:17:50;;;;;;;92.10;51.95;;;16.40;95.50;;;;;;5057802;28;20291;-64
2021/06/24 05:20:16;;;;;;;87.00;51.90;;;16.50;95.50;;;;;;5051469;28;20021;-64
2021/06/24 05:22:42;;;;;;;91.95;51.28;;;16.30;95.40;;;;;;5055211;28;20032;-64
2021/06/24 05:25:09;;;;;;;90.90;53.05;;;16.10;95.40;;;;;;5063733;28;20103;-64
2021/06/24 05:27:35;;;;;;;86.35;50.45;;;16.10;95.50;;;;;;5062333;28;20029;-65
2021/06/24 05:30:01;;;;;;;95.15;50.58;;;16.20;95.50;;;;;;5069043;28;20245;-64
2021/06/24 05:32:26;;;;;;;76.72;45.65;;;16.30;95.50;;;;;;5054647;28;20036;-64
2021/06/24 05:34:52;;;;;;;91.38;51.55;;;16.30;95.50;;;;;;5065611;28;20040;-65
2021/06/24 05:37:17;;;;;;;82.90;50.33;;;16.30;95.50;;;;;;5059607;28;20029;-64
2021/06/24 05:39:45;;;;;;;85.60;49.33;;;16.40;95.50;;;;;;5058886;28;20043;-64
2021/06/24 05:42:10;;;;;;;78.55;47.90;;;16.30;95.50;;;;;;5067497;28;20024;-64
2021/06/24 05:44:36;;;;;;;68.43;45.35;;;16.40;95.50;;;;;;5054399;28;20082;-65
2021/06/24 05:47:02;;;;;;;74.07;44.97;;;16.40;95.50;;;;;;5064272;28;20360;-64
2021/06/24 05:49:27;;;;;;;68.30;44.58;;;16.70;95.50;;;;;;5061262;28;20372;-64
2021/06/24 05:51:53;;;;;;;58.47;42.13;;;16.60;95.50;;;;;;5057384;28;20129;-64
2021/06/24 05:54:18;;;;;;;61.25;42.50;;;16.70;95.50;;;;;;5067402;28;20020;-64
2021/06/24 05:56:44;;;;;;;62.15;38.75;;;16.70;95.50;;;;;;5054763;28;20021;-64
2021/06/24 05:59:10;;;;;;;69.47;44.63;;;16.70;95.50;;;;;;5067374;28;20058;-65
2021/06/24 06:01:40;;;;;;;55.45;38.63;;;16.70;95.50;;;;;;5061478;28;20086;-65
2021/06/24 06:04:06;;;;;;;69.40;45.30;;;16.70;95.50;;;;;;5055083;28;20094;-64
2021/06/24 06:06:31;;;;;;;57.15;40.88;;;16.50;95.40;;;;;;5048996;28;20542;-65
2021/06/24 06:08:57;;;;;;;60.45;41.75;;;16.70;95.40;;;;;;5038969;28;20363;-64
2021/06/24 06:11:22;;;;;;;56.60;41.45;;;16.70;95.40;;;;;;5061429;28;20498;-64
2021/06/24 06:13:48;;;;;;;57.08;41.80;;;16.60;95.40;;;;;;5064059;28;20515;-64
2021/06/24 06:16:13;;;;;;;61.85;41.63;;;16.70;95.50;;;;;;5036280;28;20052;-64
2021/06/24 06:18:39;;;;;;;59.75;43.33;;;16.70;95.40;;;;;;5054104;28;20027;-65
2021/06/24 06:21:04;;;;;;;56.55;41.65;;;17.00;95.40;;;;;;5063739;28;20530;-64
2021/06/24 06:23:30;;;;;;;54.05;41.72;;;17.10;95.50;;;;;;5061360;28;20020;-64
2021/06/24 06:25:56;;;;;;;52.45;37.70;;;17.20;95.40;;;;;;5056824;28;20018;-65
2021/06/24 06:28:23;;;;;;;48.05;39.47;;;17.20;95.40;;;;;;5063505;28;20025;-66
2021/06/24 06:30:50;;;;;;;51.17;37.97;;;17.20;95.40;;;;;;5066887;28;20112;-65
2021/06/24 06:33:17;;;;;;;44.72;35.95;;;16.90;95.20;;;;;;5057032;28;20025;-64
2021/06/24 06:35:44;;;;;;;47.50;38.75;;;16.80;95.20;;;;;;5048647;28;20490;-64
2021/06/24 06:38:09;;;;;;;50.53;39.20;;;16.80;95.20;;;;;;5057003;28;20033;-64
2021/06/24 06:40:35;;;;;;;48.85;37.72;;;17.00;95.40;;;;;;5045923;28;20032;-65
2021/06/24 06:43:01;;;;;;;51.40;39.05;;;17.10;95.50;;;;;;5063029;28;20029;-68
2021/06/24 06:45:28;;;;;;;54.13;41.55;;;17.30;95.40;;;;;;5059568;28;20060;-69
2021/06/24 06:47:54;;;;;;;49.28;40.75;;;17.50;95.50;;;;;;5057434;28;20029;-69
2021/06/24 06:50:20;;;;;;;44.92;36.22;;;17.70;95.40;;;;;;5068562;28;20538;-71
2021/06/24 06:52:45;;;;;;;47.28;37.45;;;17.60;95.20;;;;;;5055347;28;20108;-69
2021/06/24 06:55:14;;;;;;;41.17;36.00;;;17.90;95.20;;;;;;5062817;28;20036;-69
2021/06/24 06:57:39;;;;;;;40.65;33.55;;;18.10;95.10;;;;;;5062550;28;20077;-70
2021/06/24 07:00:08;;;;;;;40.70;34.55;;;18.20;95.00;;;;;;5032685;28;20018;-70
2021/06/24 07:02:34;;;;;;;48.53;32.10;;;;;;;;;;5043952;28;20033;-71
2021/06/24 07:04:59;;;;;;;39.55;32.97;;;18.70;94.80;;;;;;5060013;28;20226;-69
2021/06/24 07:07:25;;;;;;;42.15;32.65;;;18.60;94.50;;;;;;5072123;28;20021;-69
2021/06/24 07:09:52;;;;;;;48.00;34.88;;;18.30;93.70;;;;;;5060437;28;20032;-69
2021/06/24 07:12:18;;;;;;;41.95;34.38;;;18.10;94.20;;;;;;5057331;28;20509;-69
2021/06/24 07:14:44;;;;;;;45.05;35.70;;;18.10;94.40;;;;;;5069341;28;20033;-70
2021/06/24 07:17:09;;;;;;;42.72;37.80;;;18.30;94.50;;;;;;5053428;28;20453;-67
2021/06/24 07:19:35;;;;;;;40.40;32.60;;;18.50;94.50;;;;;;5064950;28;20097;-69
2021/06/24 07:22:01;;;;;;;232.05;147.63;;;;;;;;;;5058609;28;20103;-71
2021/06/24 07:24:26;;;;;;;142.63;77.53;;;19.40;94.00;;;;;;5043353;28;20041;-71
2021/06/24 07:26:52;;;;;;;46.20;34.88;;;19.40;94.00;;;;;;5054041;28;20021;-71
2021/06/24 07:29:19;;;;;;;41.58;34.35;;;19.60;93.90;;;;;;5054001;28;20036;-72
2021/06/24 07:31:45;;;;;;;40.63;32.38;;;19.60;93.40;;;;;;5058919;28;20110;-71
2021/06/24 07:34:11;;;;;;;39.17;34.00;;;19.30;92.50;;;;;;5042045;28;20462;-72
2021/06/24 07:36:36;;;;;;;35.85;31.30;;;19.10;93.00;;;;;;5053235;28;20028;-71
2021/06/24 07:39:02;;;;;;;36.58;31.33;;;19.00;92.50;;;;;;5053431;28;20032;-71
2021/06/24 07:41:28;;;;;;;49.20;37.03;;;18.80;93.10;;;;;;5053501;28;20112;-71
2021/06/24 07:43:53;;;;;;;39.70;34.72;;;18.80;93.30;;;;;;5052029;28;20089;-72
2021/06/24 07:46:20;;;;;;;38.78;34.72;;;18.40;92.50;;;;;;5055385;28;20028;-69
2021/06/24 07:48:47;;;;;;;42.78;35.92;;;18.50;93.40;;;;;;5063801;28;20017;-70
2021/06/24 07:51:15;;;;;;;52.90;38.53;;;18.50;93.00;;;;;;5062812;28;20027;-70
2021/06/24 07:53:44;;;;;;;44.22;36.30;;;18.70;93.10;;;;;;5060249;28;20025;-70
2021/06/24 07:56:11;;;;;;;42.35;36.60;;;18.30;91.70;;;;;;5053109;28;20029;-71
2021/06/24 07:58:38;;;;;;;39.10;34.75;;;18.50;92.70;;;;;;5056968;28;20025;-69
2021/06/24 08:01:07;;;;;;;38.35;34.10;;;18.70;92.10;;;;;;5060293;28;20027;-71
2021/06/24 08:03:37;;;;;;;46.88;38.28;;;18.70;91.40;;;;;;5046729;28;20027;-71
2021/06/24 08:06:04;;;;;;;44.53;34.88;;;18.90;91.30;;;;;;5040258;28;20032;-70
2021/06/24 08:08:29;;;;;;;35.85;30.08;;;19.20;90.90;;;;;;5067470;28;20032;-71
2021/06/24 08:10:58;;;;;;;57.45;38.35;;;19.40;89.90;;;;;;5066209;28;20028;-72
2021/06/24 08:13:25;;;;;;;36.28;29.58;;;19.50;89.30;;;;;;5061759;28;20055;-70
2021/06/24 08:15:51;;;;;;;32.40;28.05;;;19.60;89.30;;;;;;5069504;28;20040;-70
2021/06/24 08:18:17;;;;;;;28.20;25.27;;;19.60;87.50;;;;;;5056800;28;20050;-70
2021/06/24 08:20:43;;;;;;;40.60;30.27;;;19.60;88.10;;;;;;5056384;28;20023;-71
2021/06/24 08:23:09;;;;;;;28.42;23.98;;;19.90;88.60;;;;;;5057764;28;20033;-69
2021/06/24 08:25:35;;;;;;;29.23;23.70;;;20.00;87.40;;;;;;5057462;28;20548;-68
2021/06/24 08:28:00;;;;;;;23.70;21.20;;;19.90;87.40;;;;;;5053737;28;20046;-68
2021/06/24 08:30:26;;;;;;;32.30;24.17;;;19.80;86.10;;;;;;5068869;28;20020;-68
2021/06/24 08:32:52;;;;;;;25.88;23.08;;;19.90;88.20;;;;;;5056228;28;20482;-70
2021/06/24 08:35:18;;;;;;;30.50;23.63;;;20.10;87.60;;;;;;5064009;28;20406;-70
2021/06/24 08:37:44;;;;;;;28.77;23.20;;;19.80;86.70;;;;;;5066874;28;20087;-69
2021/06/24 08:40:11;;;;;;;33.40;24.20;;;20.00;87.80;;;;;;5056297;28;20503;-67
2021/06/24 08:42:37;;;;;;;27.83;23.45;;;20.00;86.60;;;;;;5068350;28;20049;-68
2021/06/24 08:45:06;;;;;;;31.50;23.67;;;20.10;85.50;;;;;;5056885;28;20032;-70
2021/06/24 08:47:32;;;;;;;34.15;24.67;;;20.50;86.50;;;;;;5034930;28;20029;-69
2021/06/24 08:49:59;;;;;;;35.30;24.77;;;20.80;84.90;;;;;;5062017;28;20016;-69
2021/06/24 08:52:26;;;;;;;23.30;21.00;;;21.10;84.40;;;;;;5050228;28;20032;-69
2021/06/24 08:54:52;;;;;;;29.02;21.23;;;21.50;82.10;;;;;;5056607;28;20035;-69
2021/06/24 08:57:18;;;;;;;27.02;19.98;;;21.50;83.00;;;;;;5044991;28;20033;-71
2021/06/24 08:59:44;;;;;;;23.73;19.92;;;21.90;82.60;;;;;;5051519;28;20104;-71
2021/06/24 09:02:12;;;;;;;35.72;25.52;;;22.30;81.10;;;;;;5067918;28;20466;-70
2021/06/24 09:04:41;;;;;;;21.10;19.10;;;22.90;80.00;;;;;;5055066;28;20032;-70
2021/06/24 09:07:21;;;;;;;24.35;19.75;;;22.70;79.10;;;;;;5068189;28;20032;-72
2021/06/24 09:09:52;;;;;;;24.27;21.33;;;22.60;79.40;;;;;;5059006;28;20029;-71
2021/06/24 09:12:19;;;;;;;21.95;18.42;;;22.30;79.40;;;;;;5055185;28;20048;-70
2021/06/24 09:14:45;;;;;;;23.23;18.08;;;22.50;79.80;;;;;;5067465;28;20108;-71
2021/06/24 09:17:39;;;;;;;27.00;18.60;;;22.80;79.40;;;;;;5059309;28;20033;-72
2021/06/24 09:20:26;;;;;;;22.27;17.85;;;23.60;77.90;;;;;;5038201;28;20529;-72
2021/06/24 09:23:12;;;;;;;24.40;18.95;;;24.50;75.90;;;;;;5024395;28;20031;-73
2021/06/24 09:25:43;;;;;;;21.08;17.30;;;24.40;75.00;;;;;;5060778;28;20098;-73
2021/06/24 09:28:11;;;;;;;19.48;17.40;;;24.00;74.30;;;;;;5068038;28;20382;-74
2021/06/24 09:30:42;;;;;;;27.20;19.15;;;23.20;76.00;;;;;;5055149;28;20436;-71
2021/06/24 09:33:16;;;;;;;;;;;23.30;77.00;;;;;;5064811;28;20040;-73
2021/06/24 09:35:56;;;;;;;22.10;17.27;;;23.50;77.40;;;;;;5046037;28;20305;-72
2021/06/24 09:38:21;;;;;;;16.48;14.32;;;23.50;76.20;;;;;;5054982;28;20025;-72
2021/06/24 09:40:55;;;;;;;17.73;15.07;;;24.00;74.70;;;;;;5066966;28;20445;-70
2021/06/24 09:43:39;;;;;;;18.83;14.43;;;24.10;71.90;;;;;;5060955;28;20100;-71
2021/06/24 09:48:40;;;;;;;19.15;14.27;;;24.20;69.30;;;;;;5067784;28;20475;-71
2021/06/24 09:51:22;;;;;;;17.40;13.77;;;24.00;69.30;;;;;;5058863;28;20024;-72
2021/06/24 09:53:54;;;;;;;16.23;14.65;;;23.70;70.10;;;;;;5058798;28;20096;-74
2021/06/24 09:56:32;;;;;;;16.48;14.73;;;23.20;70.30;;;;;;5050039;28;20031;-71
2021/06/24 09:59:06;;;;;;;21.90;15.63;;;23.10;70.80;;;;;;5057861;28;20036;-71
2021/06/24 10:01:38;;;;;;;20.60;13.95;;;23.00;69.80;;;;;;5026216;28;20163;-65
2021/06/24 10:04:21;;;;;;;15.43;13.13;;;22.90;70.80;;;;;;5057988;28;20040;-64
2021/06/24 10:06:52;;;;;;;18.27;13.68;;;23.20;66.40;;;;;;5056669;28;20482;-64
2021/06/24 10:09:18;;;;;;;16.02;13.20;;;23.40;65.90;;;;;;5059684;28;20046;-64
2021/06/24 10:11:44;;;;;;;18.50;14.60;;;23.40;64.20;;;;;;5062085;28;20087;-64
2021/06/24 10:14:11;;;;;;;20.15;13.68;;;23.40;64.70;;;;;;5047340;28;20082;-64
2021/06/24 10:16:37;;;;;;;16.55;13.00;;;23.30;65.00;;;;;;5063566;28;20147;-65
2021/06/24 10:19:04;;;;;;;15.55;12.20;;;23.20;66.00;;;;;;5061303;28;20024;-65
2021/06/24 10:21:32;;;;;;;21.67;13.90;;;23.20;66.10;;;;;;5060536;28;20048;-66
2021/06/24 10:24:17;;;;;;;16.60;13.77;;;23.20;65.60;;;;;;5062072;28;20100;-65
2021/06/24 10:26:51;;;;;;;19.13;14.18;;;23.00;65.90;;;;;;5042288;28;20120;-65
2021/06/24 10:29:20;;;;;;;16.25;12.35;;;23.20;65.90;;;;;;5066276;28;20025;-66
2021/06/24 10:31:48;;;;;;;18.08;14.27;;;23.50;65.00;;;;;;5067285;28;20111;-64
2021/06/24 10:34:15;;;;;;;21.27;13.55;;;23.90;63.00;;;;;;5040249;28;20090;-65
2021/06/24 10:37:11;;;;;;;15.23;13.05;;;24.00;62.20;;;;;;5071216;28;20013;-64
2021/06/24 10:39:37;;;;;;;16.50;14.07;;;24.20;62.00;;;;;;5066701;28;20145;-65
2021/06/24 10:42:15;;;;;;;13.32;11.98;;;24.50;60.50;;;;;;5059598;28;20022;-65
2021/06/24 10:44:47;;;;;;;14.35;12.52;;;24.90;60.60;;;;;;5041927;28;20035;-64
2021/06/24 10:47:14;;;;;;;18.15;12.30;;;25.60;59.10;;;;;;5066700;28;20359;-65
2021/06/24 10:49:40;;;;;;;15.57;12.60;;;25.90;57.30;;;;;;5062471;28;20048;-65
2021/06/24 10:52:28;;;;;;;17.63;12.55;;;25.90;57.20;;;;;;5069878;28;20017;-65
2021/06/24 10:54:57;;;;;;;20.70;13.32;;;26.00;57.10;;;;;;5045224;28;20040;-64
2021/06/24 10:57:39;;;;;;;14.55;12.25;;;25.70;55.00;;;;;;5064281;28;20514;-69
2021/06/24 11:00:34;;;;;;;17.88;12.50;;;25.50;57.70;;;;;;5069740;28;20024;-69
2021/06/24 11:03:04;;;;;;;13.88;11.15;;;25.70;57.40;;;;;;5046843;28;20275;-69
2021/06/24 11:05:48;;;;;;;13.30;11.88;;;25.60;56.50;;;;;;5091536;22;20049;-70
2021/06/24 11:08:32;;;;;;;13.73;11.30;;;25.50;56.30;;;;;;5069445;28;20107;-70
2021/06/24 11:10:58;;;;;;;18.15;12.85;;;25.30;57.00;;;;;;5043014;28;20083;-70
2021/06/24 11:13:37;;;;;;;17.30;12.07;;;24.70;59.00;;;;;;5045740;28;20035;-71
2021/06/24 11:16:18;;;;;;;13.23;10.95;;;24.80;59.00;;;;;;5057827;28;20027;-71
2021/06/24 11:19:07;;;;;;;16.65;10.20;;;25.20;58.40;;;;;;5054987;28;20035;-71
2021/06/24 11:21:32;;;;;;;13.32;10.18;;;25.30;57.30;;;;;;5066091;28;20059;-74
2021/06/24 11:24:00;;;;;;;11.65;10.50;;;25.90;56.00;;;;;;5055245;28;20037;-75
2021/06/24 11:26:28;;;;;;;12.30;11.02;;;26.00;54.60;;;;;;5067972;28;20099;-74
2021/06/24 11:28:58;;;;;;;17.70;11.73;;;25.70;56.20;;;;;;5054026;28;20055;-74
2021/06/24 11:31:43;;;;;;;15.85;11.27;;;25.00;58.10;;;;;;5064283;28;20484;-72
2021/06/24 11:34:23;;;;;;;13.48;10.38;;;25.00;56.30;;;;;;5061717;28;20446;-73
2021/06/24 11:37:14;;;;;;;12.30;10.57;;;24.60;58.20;;;;;;5025656;28;20036;-72
2021/06/24 11:39:42;;;;;;;16.25;11.45;;;24.90;56.90;;;;;;5054838;28;20029;-69
2021/06/24 11:42:12;;;;;;;16.38;11.15;;;24.50;57.90;;;;;;5056054;28;20441;-71
2021/06/24 11:44:46;;;;;;;15.00;10.18;;;24.60;57.00;;;;;;5054671;28;20103;-69
2021/06/24 11:47:22;;;;;;;14.00;9.20;;;24.50;58.70;;;;;;5036487;28;20090;-70
2021/06/24 12:03:48;;;;;;;13.50;10.07;;;25.60;54.60;;;;;;5051702;28;20473;-71
2021/06/24 12:06:14;;;;;;;14.10;10.13;;;25.40;55.40;;;;;;5036004;28;20144;-68
2021/06/24 12:08:40;;;;;;;13.15;9.65;;;25.10;55.40;;;;;;5054438;28;20047;-72
2021/06/24 12:11:11;;;;;;;12.73;8.85;;;25.40;55.30;;;;;;5041294;28;20491;-68
2021/06/24 12:13:39;;;;;;;11.57;8.57;;;25.50;55.20;;;;;;5051106;28;20091;-68
2021/06/24 12:16:05;;;;;;;10.30;8.80;;;25.30;56.40;;;;;;5045596;28;20025;-71
2021/06/24 12:18:42;;;;;;;9.38;7.80;;;25.00;56.40;;;;;;5053377;28;20033;-71
2021/06/24 12:21:13;;;;;;;14.13;8.77;;;24.90;58.60;;;;;;5033994;28;20044;-71
2021/06/24 12:23:46;;;;;;;12.63;8.98;;;25.20;56.30;;;;;;5050902;28;20029;-74
2021/06/24 12:26:14;;;;;;;10.88;9.77;;;24.70;57.50;;;;;;5066837;28;20500;-70
2021/06/24 12:28:41;;;;;;;15.43;9.30;;;24.10;57.80;;;;;;5019843;28;20063;-72
2021/06/24 12:31:17;;;;;;;12.60;8.57;;;23.90;59.80;;;;;;5053497;28;20020;-72
2021/06/24 12:33:45;;;;;;;12.75;8.77;;;23.90;61.00;;;;;;5057757;28;20040;-74
2021/06/24 12:36:10;;;;;;;16.13;9.15;;;24.00;60.10;;;;;;5066128;28;20112;-73
2021/06/24 12:38:43;;;;;;;12.68;8.68;;;24.10;59.40;;;;;;5053889;28;20088;-72
2021/06/24 12:41:14;;;;;;;10.40;9.38;;;24.30;58.80;;;;;;5064036;28;20108;-73
2021/06/24 12:43:40;;;;;;;11.35;8.77;;;24.40;58.00;;;;;;5060245;28;20407;-74
2021/06/24 12:46:07;;;;;;;10.50;8.35;;;24.40;58.10;;;;;;5067085;28;20025;-74
2021/06/24 12:48:34;;;;;;;11.40;8.50;;;24.80;58.00;;;;;;5055947;28;20052;-74
2021/06/24 12:51:06;;;;;;;8.63;6.60;;;25.20;56.60;;;;;;5066120;28;20013;-73
2021/06/24 12:53:34;;;;;;;14.88;7.65;;;25.70;55.70;;;;;;5062801;28;20425;-74
2021/06/24 12:56:01;;;;;;;11.50;7.70;;;26.00;55.20;;;;;;5038864;28;20028;-76
2021/06/24 12:58:27;;;;;;;11.10;7.75;;;25.90;54.70;;;;;;5067684;28;20510;-75
2021/06/24 13:01:13;;;;;;;11.20;8.15;;;26.40;55.40;;;;;;5035853;28;20051;-74
2021/06/24 13:03:56;;;;;;;11.45;7.80;;;26.40;54.10;;;;;;5055205;28;20506;-74
2021/06/24 13:06:28;;;;;;;8.43;7.50;;;26.50;52.90;;;;;;5044649;28;20096;-70
2021/06/24 13:09:12;;;;;;;10.07;7.20;;;26.30;53.40;;;;;;5059240;28;20021;-71